sensor_id;sensor_type;location;lat;lon;timestamp;pressure;altitude;pressure_sealevel;temperature;humidity
12358;BME280;6243;51.244;6.774;2022-08-06T00:01:25;152892.28;;;21.48;52.71
12358;BME280;6243;51.244;6.774;2022-08-06T00:03:51;152870.50;;;21.40;53.38
12358;BME280;6243;51.244;6.774;2022-08-06T00:06:16;152910.25;;;21.55;52.83
12358;BME280;6243;51.244;6.774;2022-08-06T00:08:41;152924.31;;;21.61;52.38
12358;BME280;6243;51.244;6.774;2022-08-06T00:11:07;152833.31;;;21.25;53.46
12358;BME280;6243;51.244;6.774;2022-08-06T00:13:32;152888.47;;;21.47;52.94
12358;BME280;6243;51.244;6.774;2022-08-06T00:15:59;152826.91;;;21.23;53.38
12358;BME280;6243;51.244;6.774;2022-08-06T00:18:25;152823.06;;;21.21;53.27
12358;BME280;6243;51.244;6.774;2022-08-06T00:20:50;152752.53;;;20.93;54.55
12358;BME280;6243;51.244;6.774;2022-08-06T00:23:16;152756.38;;;20.95;53.60
12358;BME280;6243;51.244;6.774;2022-08-06T00:25:41;152719.25;;;20.80;54.25
12358;BME280;6243;51.244;6.774;2022-08-06T00:28:07;152764.06;;;20.98;54.06
12358;BME280;6243;51.244;6.774;2022-08-06T00:30:32;152748.72;;;20.92;54.29
12358;BME280;6243;51.244;6.774;2022-08-06T00:32:59;152715.38;;;20.79;54.72
12358;BME280;6243;51.244;6.774;2022-08-06T00:35:25;152720.53;;;20.81;54.39
12358;BME280;6243;51.244;6.774;2022-08-06T00:37:50;152755.13;;;20.94;53.57
12358;BME280;6243;51.244;6.774;2022-08-06T00:40:18;152733.31;;;20.86;53.49
12358;BME280;6243;51.244;6.774;2022-08-06T00:42:44;152666.72;;;20.60;54.70
12358;BME280;6243;51.244;6.774;2022-08-06T00:45:10;152659.00;;;20.57;54.09
12358;BME280;6243;51.244;6.774;2022-08-06T00:47:36;152714.13;;;20.78;53.67
12358;BME280;6243;51.244;6.774;2022-08-06T00:50:03;152633.41;;;20.46;54.70
12358;BME280;6243;51.244;6.774;2022-08-06T00:52:29;152671.81;;;20.62;54.35
12358;BME280;6243;51.244;6.774;2022-08-06T00:54:55;152633.41;;;20.46;54.79
12358;BME280;6243;51.244;6.774;2022-08-06T00:57:20;152551.41;;;20.14;56.23
12358;BME280;6243;51.244;6.774;2022-08-06T00:59:46;152627.00;;;20.44;55.40
12358;BME280;6243;51.244;6.774;2022-08-06T01:02:11;152679.53;;;20.65;54.41
12358;BME280;6243;51.244;6.774;2022-08-06T01:04:37;152691.06;;;20.69;54.38
12358;BME280;6243;51.244;6.774;2022-08-06T01:07:04;152625.72;;;20.43;55.36
12358;BME280;6243;51.244;6.774;2022-08-06T01:09:30;152570.63;;;20.22;56.07
12358;BME280;6243;51.244;6.774;2022-08-06T01:11:55;152597.53;;;20.32;55.81
12358;BME280;6243;51.244;6.774;2022-08-06T01:14:21;152629.53;;;20.45;55.43
12358;BME280;6243;51.244;6.774;2022-08-06T01:16:47;152633.41;;;20.46;55.66
12358;BME280;6243;51.244;6.774;2022-08-06T01:19:41;152635.94;;;20.47;55.80
12358;BME280;6243;51.244;6.774;2022-08-06T01:22:28;152565.44;;;20.20;57.25
12358;BME280;6243;51.244;6.774;2022-08-06T01:25:09;152556.50;;;20.16;56.67
12358;BME280;6243;51.244;6.774;2022-08-06T01:27:44;152541.09;;;20.10;57.01
12358;BME280;6243;51.244;6.774;2022-08-06T01:30:14;152553.94;;;20.15;57.20
12358;BME280;6243;51.244;6.774;2022-08-06T01:32:45;152618.00;;;20.40;55.90
12358;BME280;6243;51.244;6.774;2022-08-06T01:35:16;152646.19;;;20.51;55.63
12358;BME280;6243;51.244;6.774;2022-08-06T01:37:52;152574.50;;;20.23;56.46
12358;BME280;6243;51.244;6.774;2022-08-06T01:40:23;152584.72;;;20.27;56.45
12358;BME280;6243;51.244;6.774;2022-08-06T01:42:51;152618.00;;;20.40;56.08
12358;BME280;6243;51.244;6.774;2022-08-06T01:45:19;152528.34;;;20.05;57.32
12358;BME280;6243;51.244;6.774;2022-08-06T01:47:47;152625.72;;;20.43;55.97
12358;BME280;6243;51.244;6.774;2022-08-06T01:50:16;152482.25;;;19.87;57.28
12358;BME280;6243;51.244;6.774;2022-08-06T01:52:43;152469.44;;;19.82;57.80
12358;BME280;6243;51.244;6.774;2022-08-06T01:55:12;152506.53;;;19.97;57.47
12358;BME280;6243;51.244;6.774;2022-08-06T01:57:40;152399.03;;;19.54;58.56
12358;BME280;6243;51.244;6.774;2022-08-06T02:00:11;152530.88;;;20.06;57.46
12358;BME280;6243;51.244;6.774;2022-08-06T02:02:37;152528.34;;;20.05;57.31
12358;BME280;6243;51.244;6.774;2022-08-06T02:05:05;152433.56;;;19.68;58.90
12358;BME280;6243;51.244;6.774;2022-08-06T02:07:35;152466.84;;;19.81;58.54
12358;BME280;6243;51.244;6.774;2022-08-06T02:10:04;152374.69;;;19.45;60.17
12358;BME280;6243;51.244;6.774;2022-08-06T02:12:32;152386.22;;;19.49;60.44
12358;BME280;6243;51.244;6.774;2022-08-06T02:15:02;152492.47;;;19.91;58.26
12358;BME280;6243;51.244;6.774;2022-08-06T02:17:33;152415.66;;;19.61;59.47
12358;BME280;6243;51.244;6.774;2022-08-06T02:20:02;152387.50;;;19.50;59.66
12358;BME280;6243;51.244;6.774;2022-08-06T02:22:29;152343.91;;;19.33;60.17
12358;BME280;6243;51.244;6.774;2022-08-06T02:24:59;152239.03;;;18.91;61.95
12358;BME280;6243;51.244;6.774;2022-08-06T02:27:26;152263.28;;;19.01;61.82
12358;BME280;6243;51.244;6.774;2022-08-06T02:29:54;152292.72;;;19.12;62.07
12358;BME280;6243;51.244;6.774;2022-08-06T02:32:20;152311.94;;;19.20;61.49
12358;BME280;6243;51.244;6.774;2022-08-06T02:34:47;152218.53;;;18.83;62.42
12358;BME280;6243;51.244;6.774;2022-08-06T02:37:16;152281.22;;;19.08;61.99
12358;BME280;6243;51.244;6.774;2022-08-06T02:39:47;152341.38;;;19.32;61.48
12358;BME280;6243;51.244;6.774;2022-08-06T02:42:19;152384.91;;;19.49;60.40
12358;BME280;6243;51.244;6.774;2022-08-06T02:44:51;152277.38;;;19.06;62.10
12358;BME280;6243;51.244;6.774;2022-08-06T02:47:21;152259.47;;;18.99;62.03
12358;BME280;6243;51.244;6.774;2022-08-06T02:49:53;152300.41;;;19.16;61.59
12358;BME280;6243;51.244;6.774;2022-08-06T02:52:25;152283.78;;;19.09;61.66
12358;BME280;6243;51.244;6.774;2022-08-06T02:54:56;152168.66;;;18.64;63.66
12358;BME280;6243;51.244;6.774;2022-08-06T02:57:26;152259.47;;;18.99;62.51
12358;BME280;6243;51.244;6.774;2022-08-06T02:59:59;152270.97;;;19.04;62.45
12358;BME280;6243;51.244;6.774;2022-08-06T03:02:28;152265.88;;;19.02;61.61
12358;BME280;6243;51.244;6.774;2022-08-06T03:04:57;152246.66;;;18.94;62.41
12358;BME280;6243;51.244;6.774;2022-08-06T03:07:26;152241.56;;;18.92;62.45
12358;BME280;6243;51.244;6.774;2022-08-06T03:09:55;152212.13;;;18.81;63.18
12358;BME280;6243;51.244;6.774;2022-08-06T03:12:21;152175.06;;;18.66;62.99
12358;BME280;6243;51.244;6.774;2022-08-06T03:14:48;152163.53;;;18.62;63.93
12358;BME280;6243;51.244;6.774;2022-08-06T03:17:15;152159.66;;;18.60;64.07
12358;BME280;6243;51.244;6.774;2022-08-06T03:19:43;152143.06;;;18.54;64.36
12358;BME280;6243;51.244;6.774;2022-08-06T03:22:11;152100.78;;;18.37;65.16
12358;BME280;6243;51.244;6.774;2022-08-06T03:24:38;152088.03;;;18.32;65.55
12358;BME280;6243;51.244;6.774;2022-08-06T03:27:06;152067.53;;;18.24;65.65
12358;BME280;6243;51.244;6.774;2022-08-06T03:29:32;152020.22;;;18.05;67.28
12358;BME280;6243;51.244;6.774;2022-08-06T03:31:59;151990.81;;;17.94;67.57
12358;BME280;6243;51.244;6.774;2022-08-06T03:34:28;152084.16;;;18.30;65.96
12358;BME280;6243;51.244;6.774;2022-08-06T03:36:55;152049.63;;;18.17;66.78
12358;BME280;6243;51.244;6.774;2022-08-06T03:39:23;152102.06;;;18.37;65.84
12358;BME280;6243;51.244;6.774;2022-08-06T03:41:51;152109.75;;;18.40;65.73
12358;BME280;6243;51.244;6.774;2022-08-06T03:44:18;152093.13;;;18.34;66.30
12358;BME280;6243;51.244;6.774;2022-08-06T03:46:46;152024.09;;;18.07;66.84
12358;BME280;6243;51.244;6.774;2022-08-06T03:49:18;152076.53;;;18.27;66.35
12358;BME280;6243;51.244;6.774;2022-08-06T03:51:45;152076.53;;;18.27;67.18
12358;BME280;6243;51.244;6.774;2022-08-06T03:54:14;152095.66;;;18.35;66.16
12358;BME280;6243;51.244;6.774;2022-08-06T03:56:43;151998.50;;;17.97;67.49
12358;BME280;6243;51.244;6.774;2022-08-06T03:59:12;152013.81;;;18.03;68.30
12358;BME280;6243;51.244;6.774;2022-08-06T04:01:42;152034.31;;;18.11;67.70
12358;BME280;6243;51.244;6.774;2022-08-06T04:04:09;152113.56;;;18.42;66.55
12358;BME280;6243;51.244;6.774;2022-08-06T04:06:35;152173.75;;;18.66;65.37
12358;BME280;6243;51.244;6.774;2022-08-06T04:09:01;152152.03;;;18.57;65.27
12358;BME280;6243;51.244;6.774;2022-08-06T04:11:27;152185.28;;;18.70;65.15
12358;BME280;6243;51.244;6.774;2022-08-06T04:13:56;152172.47;;;18.65;65.49
12358;BME280;6243;51.244;6.774;2022-08-06T04:16:23;152212.13;;;18.81;64.44
12358;BME280;6243;51.244;6.774;2022-08-06T04:18:49;152192.91;;;18.73;64.87
12358;BME280;6243;51.244;6.774;2022-08-06T04:21:19;152181.41;;;18.69;64.74
12358;BME280;6243;51.244;6.774;2022-08-06T04:23:45;152157.16;;;18.59;65.38
12358;BME280;6243;51.244;6.774;2022-08-06T04:26:13;152186.56;;;18.71;65.13
12358;BME280;6243;51.244;6.774;2022-08-06T04:28:41;152198.06;;;18.75;64.96
12358;BME280;6243;51.244;6.774;2022-08-06T04:31:09;152227.50;;;18.87;64.74
12358;BME280;6243;51.244;6.774;2022-08-06T04:33:35;152235.16;;;18.90;64.57
12358;BME280;6243;51.244;6.774;2022-08-06T04:36:04;152198.06;;;18.75;65.18
12358;BME280;6243;51.244;6.774;2022-08-06T04:38:32;152222.34;;;18.85;65.16
12358;BME280;6243;51.244;6.774;2022-08-06T04:40:58;152130.25;;;18.49;67.06
12358;BME280;6243;51.244;6.774;2022-08-06T04:43:25;152262.06;;;19.00;65.08
12358;BME280;6243;51.244;6.774;2022-08-06T04:45:51;152285.09;;;19.09;64.33
12358;BME280;6243;51.244;6.774;2022-08-06T04:48:18;152319.63;;;19.23;63.84
12358;BME280;6243;51.244;6.774;2022-08-06T04:50:44;152356.75;;;19.38;63.77
12358;BME280;6243;51.244;6.774;2022-08-06T04:53:10;152390.03;;;19.51;63.51
12358;BME280;6243;51.244;6.774;2022-08-06T04:55:37;152402.84;;;19.56;63.83
12358;BME280;6243;51.244;6.774;2022-08-06T04:58:04;152391.31;;;19.51;63.79
12358;BME280;6243;51.244;6.774;2022-08-06T05:00:30;152422.06;;;19.63;64.16
12358;BME280;6243;51.244;6.774;2022-08-06T05:02:55;152433.56;;;19.68;64.17
12358;BME280;6243;51.244;6.774;2022-08-06T05:05:23;152493.78;;;19.92;62.93
12358;BME280;6243;51.244;6.774;2022-08-06T05:07:50;152382.38;;;19.48;65.54
12358;BME280;6243;51.244;6.774;2022-08-06T05:10:17;152509.13;;;19.98;63.86
12358;BME280;6243;51.244;6.774;2022-08-06T05:12:45;152555.22;;;20.16;63.38
12358;BME280;6243;51.244;6.774;2022-08-06T05:15:17;152580.91;;;20.26;62.53
12358;BME280;6243;51.244;6.774;2022-08-06T05:17:48;152642.34;;;20.50;61.75
12358;BME280;6243;51.244;6.774;2022-08-06T05:20:16;152643.66;;;20.50;61.90
12358;BME280;6243;51.244;6.774;2022-08-06T05:22:46;152679.53;;;20.65;61.35
12358;BME280;6243;51.244;6.774;2022-08-06T05:25:12;152720.53;;;20.81;60.79
12358;BME280;6243;51.244;6.774;2022-08-06T05:27:39;152748.72;;;20.92;60.53
12358;BME280;6243;51.244;6.774;2022-08-06T05:30:06;152774.31;;;21.02;60.13
12358;BME280;6243;51.244;6.774;2022-08-06T05:32:40;152770.47;;;21.00;60.23
12358;BME280;6243;51.244;6.774;2022-08-06T05:35:06;152828.19;;;21.23;59.56
12358;BME280;6243;51.244;6.774;2022-08-06T05:37:31;152835.91;;;21.26;59.42
12358;BME280;6243;51.244;6.774;2022-08-06T05:39:58;152910.25;;;21.55;58.68
12358;BME280;6243;51.244;6.774;2022-08-06T05:42:24;152905.13;;;21.53;58.97
12358;BME280;6243;51.244;6.774;2022-08-06T05:44:49;152958.97;;;21.74;58.55
12358;BME280;6243;51.244;6.774;2022-08-06T05:47:18;152971.75;;;21.79;58.05
12358;BME280;6243;51.244;6.774;2022-08-06T05:49:47;152958.97;;;21.74;58.59
12358;BME280;6243;51.244;6.774;2022-08-06T05:52:17;153005.19;;;21.93;58.38
12358;BME280;6243;51.244;6.774;2022-08-06T05:54:48;153069.31;;;22.18;57.18
12358;BME280;6243;51.244;6.774;2022-08-06T05:57:19;153089.81;;;22.26;57.07
12358;BME280;6243;51.244;6.774;2022-08-06T05:59:49;153094.94;;;22.28;56.71
12358;BME280;6243;51.244;6.774;2022-08-06T06:02:17;153100.06;;;22.30;56.77
12358;BME280;6243;51.244;6.774;2022-08-06T06:04:44;153064.13;;;22.16;57.50
12358;BME280;6243;51.244;6.774;2022-08-06T06:07:11;153168.06;;;22.56;56.28
12358;BME280;6243;51.244;6.774;2022-08-06T06:09:37;153219.44;;;22.77;55.78
12358;BME280;6243;51.244;6.774;2022-08-06T06:12:04;153247.66;;;22.88;55.51
12358;BME280;6243;51.244;6.774;2022-08-06T06:14:35;153269.47;;;22.96;55.28
12358;BME280;6243;51.244;6.774;2022-08-06T06:17:19;153287.44;;;23.03;54.97
12358;BME280;6243;51.244;6.774;2022-08-06T06:19:56;153337.47;;;23.23;54.69
12358;BME280;6243;51.244;6.774;2022-08-06T06:22:27;153379.88;;;23.40;54.66
12358;BME280;6243;51.244;6.774;2022-08-06T06:24:57;153414.53;;;23.53;54.46
12358;BME280;6243;51.244;6.774;2022-08-06T06:27:29;153293.84;;;23.06;54.90
12358;BME280;6243;51.244;6.774;2022-08-06T06:30:03;153440.25;;;23.63;53.69
12358;BME280;6243;51.244;6.774;2022-08-06T06:32:37;153519.81;;;23.94;53.21
12358;BME280;6243;51.244;6.774;2022-08-06T06:35:13;153552.00;;;24.07;52.47
12358;BME280;6243;51.244;6.774;2022-08-06T06:37:44;153621.38;;;24.34;52.26
12358;BME280;6243;51.244;6.774;2022-08-06T06:40:32;153629.03;;;24.37;51.62
12358;BME280;6243;51.244;6.774;2022-08-06T06:43:04;153603.38;;;24.27;51.72
12358;BME280;6243;51.244;6.774;2022-08-06T06:45:34;153675.28;;;24.55;50.93
12358;BME280;6243;51.244;6.774;2022-08-06T06:48:07;153742.16;;;24.82;51.34
12358;BME280;6243;51.244;6.774;2022-08-06T06:50:36;153787.13;;;24.99;50.06
12358;BME280;6243;51.244;6.774;2022-08-06T06:53:05;153811.56;;;25.09;50.00
12358;BME280;6243;51.244;6.774;2022-08-06T06:55:35;153859.13;;;25.27;49.71
12358;BME280;6243;51.244;6.774;2022-08-06T06:58:05;153899.00;;;25.43;49.03
12358;BME280;6243;51.244;6.774;2022-08-06T07:00:33;153911.88;;;25.48;48.92
12358;BME280;6243;51.244;6.774;2022-08-06T07:02:59;153917.00;;;25.50;49.40
12358;BME280;6243;51.244;6.774;2022-08-06T07:05:27;153969.72;;;25.71;48.39
12358;BME280;6243;51.244;6.774;2022-08-06T07:07:54;153985.13;;;25.77;48.75
12358;BME280;6243;51.244;6.774;2022-08-06T07:10:22;153990.28;;;25.79;48.30
12358;BME280;6243;51.244;6.774;2022-08-06T07:12:49;154043.00;;;25.99;47.75
12358;BME280;6243;51.244;6.774;2022-08-06T07:15:16;154113.78;;;26.27;47.31
12358;BME280;6243;51.244;6.774;2022-08-06T07:17:46;154161.38;;;26.46;46.61
12358;BME280;6243;51.244;6.774;2022-08-06T07:20:13;154194.81;;;26.59;46.47
12358;BME280;6243;51.244;6.774;2022-08-06T07:22:41;154162.69;;;26.46;46.17
12358;BME280;6243;51.244;6.774;2022-08-06T07:25:11;154193.53;;;26.58;44.71
12358;BME280;6243;51.244;6.774;2022-08-06T07:27:39;154172.97;;;26.50;43.74
12358;BME280;6243;51.244;6.774;2022-08-06T07:30:06;154233.50;;;26.74;43.86
12358;BME280;6243;51.244;6.774;2022-08-06T07:32:33;154242.47;;;26.78;43.17
12358;BME280;6243;51.244;6.774;2022-08-06T07:35:02;154288.81;;;26.96;43.23
12358;BME280;6243;51.244;6.774;2022-08-06T07:37:29;154341.56;;;27.16;42.05
12358;BME280;6243;51.244;6.774;2022-08-06T07:39:58;154363.44;;;27.25;42.63
12358;BME280;6243;51.244;6.774;2022-08-06T07:42:26;154391.75;;;27.36;42.13
12358;BME280;6243;51.244;6.774;2022-08-06T07:44:57;154203.84;;;26.62;42.38
12358;BME280;6243;51.244;6.774;2022-08-06T07:47:27;154126.66;;;26.32;42.39
12358;BME280;6243;51.244;6.774;2022-08-06T07:49:56;154326.13;;;27.10;42.16
12358;BME280;6243;51.244;6.774;2022-08-06T07:52:24;154435.56;;;27.53;41.68
12358;BME280;6243;51.244;6.774;2022-08-06T07:54:50;154506.41;;;27.81;41.41
12358;BME280;6243;51.244;6.774;2022-08-06T07:57:16;154537.25;;;27.93;39.79
12358;BME280;6243;51.244;6.774;2022-08-06T07:59:42;154572.13;;;28.06;39.96
12358;BME280;6243;51.244;6.774;2022-08-06T08:02:09;154554.09;;;27.99;38.37
12358;BME280;6243;51.244;6.774;2022-08-06T08:04:35;154632.63;;;28.30;39.36
12358;BME280;6243;51.244;6.774;2022-08-06T08:07:01;154642.91;;;28.34;39.90
12358;BME280;6243;51.244;6.774;2022-08-06T08:09:30;154680.28;;;28.49;39.97
12358;BME280;6243;51.244;6.774;2022-08-06T08:11:56;154663.56;;;28.42;37.95
12358;BME280;6243;51.244;6.774;2022-08-06T08:14:22;154740.91;;;28.72;38.33
12358;BME280;6243;51.244;6.774;2022-08-06T08:16:50;154618.50;;;28.25;37.98
12358;BME280;6243;51.244;6.774;2022-08-06T08:19:22;154729.31;;;28.68;37.62
12358;BME280;6243;51.244;6.774;2022-08-06T08:21:48;154610.75;;;28.22;37.11
12358;BME280;6243;51.244;6.774;2022-08-06T08:24:14;154776.94;;;28.87;38.09
12358;BME280;6243;51.244;6.774;2022-08-06T08:26:41;154814.31;;;29.01;37.56
12358;BME280;6243;51.244;6.774;2022-08-06T08:29:07;154686.72;;;28.51;37.47
12358;BME280;6243;51.244;6.774;2022-08-06T08:31:33;154744.75;;;28.74;36.79
12358;BME280;6243;51.244;6.774;2022-08-06T08:33:59;154854.25;;;29.17;36.85
12358;BME280;6243;51.244;6.774;2022-08-06T08:36:25;154925.22;;;29.44;35.38
12358;BME280;6243;51.244;6.774;2022-08-06T08:38:50;154976.75;;;29.65;34.66
12358;BME280;6243;51.244;6.774;2022-08-06T08:41:19;155051.56;;;29.94;34.79
12358;BME280;6243;51.244;6.774;2022-08-06T08:43:56;155079.97;;;30.05;33.57
12358;BME280;6243;51.244;6.774;2022-08-06T08:46:25;155032.25;;;29.86;34.27
12358;BME280;6243;51.244;6.774;2022-08-06T08:48:52;155082.53;;;30.06;34.07
12358;BME280;6243;51.244;6.774;2022-08-06T08:51:18;154989.66;;;29.70;34.58
12358;BME280;6243;51.244;6.774;2022-08-06T08:53:48;154963.84;;;29.60;34.32
12358;BME280;6243;51.244;6.774;2022-08-06T08:56:13;154806.56;;;28.98;34.00
12358;BME280;6243;51.244;6.774;2022-08-06T08:58:41;154818.16;;;29.03;33.02
12358;BME280;6243;51.244;6.774;2022-08-06T09:01:08;154706.13;;;28.59;33.40
12358;BME280;6243;51.244;6.774;2022-08-06T09:03:35;154825.91;;;29.06;33.51
12358;BME280;6243;51.244;6.774;2022-08-06T09:06:02;154867.22;;;29.22;33.76
12358;BME280;6243;51.244;6.774;2022-08-06T09:08:29;154931.66;;;29.47;33.71
12358;BME280;6243;51.244;6.774;2022-08-06T09:10:55;154960.00;;;29.58;32.58
12358;BME280;6243;51.244;6.774;2022-08-06T09:13:23;154814.31;;;29.01;32.64
12358;BME280;6243;51.244;6.774;2022-08-06T09:15:48;155002.56;;;29.75;33.63
12358;BME280;6243;51.244;6.774;2022-08-06T09:18:15;154862.06;;;29.20;33.38
12358;BME280;6243;51.244;6.774;2022-08-06T09:20:41;154954.84;;;29.56;33.36
12358;BME280;6243;51.244;6.774;2022-08-06T09:23:06;155086.38;;;30.07;33.21
12358;BME280;6243;51.244;6.774;2022-08-06T09:25:36;155086.38;;;30.07;31.95
12358;BME280;6243;51.244;6.774;2022-08-06T09:28:02;155121.25;;;30.21;32.29
12358;BME280;6243;51.244;6.774;2022-08-06T09:30:28;155140.56;;;30.29;32.29
12358;BME280;6243;51.244;6.774;2022-08-06T09:32:54;154944.56;;;29.52;31.57
12358;BME280;6243;51.244;6.774;2022-08-06T09:35:22;155109.59;;;30.16;31.95
12358;BME280;6243;51.244;6.774;2022-08-06T09:37:49;155238.63;;;30.67;31.92
12358;BME280;6243;51.244;6.774;2022-08-06T09:40:17;155353.53;;;31.12;31.56
12358;BME280;6243;51.244;6.774;2022-08-06T09:42:44;155298.00;;;30.90;30.70
12358;BME280;6243;51.244;6.774;2022-08-06T09:45:12;155428.34;;;31.41;31.75
12358;BME280;6243;51.244;6.774;2022-08-06T09:47:38;155276.03;;;30.81;30.14
12358;BME280;6243;51.244;6.774;2022-08-06T09:50:04;155411.59;;;31.34;30.69
12358;BME280;6243;51.244;6.774;2022-08-06T09:52:31;155425.75;;;31.40;30.76
12358;BME280;6243;51.244;6.774;2022-08-06T09:54:57;155228.31;;;30.63;30.15
12358;BME280;6243;51.244;6.774;2022-08-06T09:57:24;155180.59;;;30.44;29.81
12358;BME280;6243;51.244;6.774;2022-08-06T09:59:50;155181.88;;;30.45;30.58
12358;BME280;6243;51.244;6.774;2022-08-06T10:02:18;155218.00;;;30.59;31.25
12358;BME280;6243;51.244;6.774;2022-08-06T10:04:44;155219.31;;;30.59;30.54
12358;BME280;6243;51.244;6.774;2022-08-06T10:07:11;155270.91;;;30.79;31.37
12358;BME280;6243;51.244;6.774;2022-08-06T10:09:50;155329.00;;;31.02;30.86
12358;BME280;6243;51.244;6.774;2022-08-06T10:12:16;155380.59;;;31.22;30.70
12358;BME280;6243;51.244;6.774;2022-08-06T10:14:42;155405.13;;;31.32;29.96
12358;BME280;6243;51.244;6.774;2022-08-06T10:17:09;155424.50;;;31.39;30.62
12358;BME280;6243;51.244;6.774;2022-08-06T10:19:36;155332.84;;;31.04;29.21
12358;BME280;6243;51.244;6.774;2022-08-06T10:22:05;155431.00;;;31.42;29.71
12358;BME280;6243;51.244;6.774;2022-08-06T10:24:31;155449.03;;;31.49;30.21
12358;BME280;6243;51.244;6.774;2022-08-06T10:26:58;155485.19;;;31.63;30.52
12358;BME280;6243;51.244;6.774;2022-08-06T10:29:25;155495.50;;;31.67;31.42
12358;BME280;6243;51.244;6.774;2022-08-06T10:31:53;155463.25;;;31.54;30.80
12358;BME280;6243;51.244;6.774;2022-08-06T10:34:22;155460.63;;;31.53;31.03
12358;BME280;6243;51.244;6.774;2022-08-06T10:36:53;155357.38;;;31.13;31.57
12358;BME280;6243;51.244;6.774;2022-08-06T10:39:22;155334.16;;;31.04;32.00
12358;BME280;6243;51.244;6.774;2022-08-06T10:41:50;155162.53;;;30.37;31.76
12358;BME280;6243;51.244;6.774;2022-08-06T10:44:17;155251.53;;;30.72;32.15
12358;BME280;6243;51.244;6.774;2022-08-06T10:46:43;155125.09;;;30.23;32.73
12358;BME280;6243;51.244;6.774;2022-08-06T10:49:10;155264.44;;;30.77;30.86
12358;BME280;6243;51.244;6.774;2022-08-06T10:51:36;155296.72;;;30.90;31.05
12358;BME280;6243;51.244;6.774;2022-08-06T10:54:03;155398.66;;;31.29;30.37
12358;BME280;6243;51.244;6.774;2022-08-06T10:56:29;155472.25;;;31.58;29.75
12358;BME280;6243;51.244;6.774;2022-08-06T10:58:56;155498.09;;;31.68;28.68
12358;BME280;6243;51.244;6.774;2022-08-06T11:01:30;155441.31;;;31.46;27.69
12358;BME280;6243;51.244;6.774;2022-08-06T11:04:11;155032.25;;;29.86;29.46
12358;BME280;6243;51.244;6.774;2022-08-06T11:06:52;155320.00;;;30.99;29.23
12358;BME280;6243;51.244;6.774;2022-08-06T11:09:31;154956.16;;;29.57;30.16
12358;BME280;6243;51.244;6.774;2022-08-06T11:12:14;155029.66;;;29.85;29.05
12358;BME280;6243;51.244;6.774;2022-08-06T11:14:43;155176.72;;;30.43;30.81
12358;BME280;6243;51.244;6.774;2022-08-06T11:17:11;155241.22;;;30.68;30.78
12358;BME280;6243;51.244;6.774;2022-08-06T11:19:40;155316.09;;;30.97;31.13
12358;BME280;6243;51.244;6.774;2022-08-06T11:22:06;155348.38;;;31.10;30.55
12358;BME280;6243;51.244;6.774;2022-08-06T11:24:32;155307.06;;;30.94;30.09
12358;BME280;6243;51.244;6.774;2022-08-06T11:26:57;155438.72;;;31.45;29.90
12358;BME280;6243;51.244;6.774;2022-08-06T11:29:23;155507.16;;;31.72;28.74
12358;BME280;6243;51.244;6.774;2022-08-06T11:31:50;155440.00;;;31.45;27.83
12358;BME280;6243;51.244;6.774;2022-08-06T11:34:19;155463.25;;;31.54;28.83
12358;BME280;6243;51.244;6.774;2022-08-06T11:36:50;155529.09;;;31.80;28.84
12358;BME280;6243;51.244;6.774;2022-08-06T11:39:17;155553.63;;;31.90;28.54
12358;BME280;6243;51.244;6.774;2022-08-06T11:41:45;155500.69;;;31.69;28.40
12358;BME280;6243;51.244;6.774;2022-08-06T11:44:11;155393.50;;;31.27;28.97
12358;BME280;6243;51.244;6.774;2022-08-06T11:46:38;155431.00;;;31.42;29.72
12358;BME280;6243;51.244;6.774;2022-08-06T11:49:23;155365.13;;;31.16;29.51
12358;BME280;6243;51.244;6.774;2022-08-06T11:51:50;155339.31;;;31.06;29.06
12358;BME280;6243;51.244;6.774;2022-08-06T11:54:18;155221.84;;;30.60;29.01
12358;BME280;6243;51.244;6.774;2022-08-06T11:57:17;155372.84;;;31.19;29.00
12358;BME280;6243;51.244;6.774;2022-08-06T12:00:00;155236.06;;;30.66;28.03
12358;BME280;6243;51.244;6.774;2022-08-06T12:02:59;155423.19;;;31.39;29.36
12358;BME280;6243;51.244;6.774;2022-08-06T12:05:34;155520.03;;;31.77;28.26
12358;BME280;6243;51.244;6.774;2022-08-06T12:08:17;155478.72;;;31.61;27.46
12358;BME280;6243;51.244;6.774;2022-08-06T12:13:42;155485.19;;;31.63;28.47
12358;BME280;6243;51.244;6.774;2022-08-06T12:16:32;155398.66;;;31.29;28.23
12358;BME280;6243;51.244;6.774;2022-08-06T12:18:58;155348.38;;;31.10;28.90
12358;BME280;6243;51.244;6.774;2022-08-06T12:21:25;155421.91;;;31.38;28.54
12358;BME280;6243;51.244;6.774;2022-08-06T12:23:51;155372.84;;;31.19;29.28
12358;BME280;6243;51.244;6.774;2022-08-06T12:26:18;155396.06;;;31.28;29.53
12358;BME280;6243;51.244;6.774;2022-08-06T12:28:44;155427.06;;;31.40;29.51
12358;BME280;6243;51.244;6.774;2022-08-06T12:31:10;155456.78;;;31.52;29.10
12358;BME280;6243;51.244;6.774;2022-08-06T12:33:40;155358.69;;;31.14;27.65
12358;BME280;6243;51.244;6.774;2022-08-06T12:36:07;155372.84;;;31.19;26.81
12358;BME280;6243;51.244;6.774;2022-08-06T12:38:34;155359.97;;;31.14;27.02
12358;BME280;6243;51.244;6.774;2022-08-06T12:41:00;155454.22;;;31.51;27.16
12358;BME280;6243;51.244;6.774;2022-08-06T12:43:31;155538.09;;;31.84;26.95
12358;BME280;6243;51.244;6.774;2022-08-06T12:45:57;155628.53;;;32.19;27.17
12358;BME280;6243;51.244;6.774;2022-08-06T12:48:23;155687.94;;;32.42;27.81
12358;BME280;6243;51.244;6.774;2022-08-06T12:50:48;155760.28;;;32.70;27.01
12358;BME280;6243;51.244;6.774;2022-08-06T12:53:15;155672.41;;;32.36;27.39
12358;BME280;6243;51.244;6.774;2022-08-06T12:55:45;155538.09;;;31.84;27.25
12358;BME280;6243;51.244;6.774;2022-08-06T12:58:12;155450.31;;;31.49;28.21
12358;BME280;6243;51.244;6.774;2022-08-06T13:00:39;155318.69;;;30.98;28.55
12358;BME280;6243;51.244;6.774;2022-08-06T13:03:06;155241.22;;;30.68;29.08
12358;BME280;6243;51.244;6.774;2022-08-06T13:05:33;155374.13;;;31.20;29.27
12358;BME280;6243;51.244;6.774;2022-08-06T13:07:59;155242.53;;;30.68;29.04
12358;BME280;6243;51.244;6.774;2022-08-06T13:10:26;155308.38;;;30.94;28.71